createdAt,value
2023-01-31T00:05:27.052Z,3.10
2023-01-31T00:15:30.947Z,3.00
2023-01-31T00:25:34.848Z,2.70
2023-01-31T00:35:40.666Z,3.30
2023-01-31T00:45:44.665Z,3.10
2023-01-31T00:55:48.698Z,2.80
2023-01-31T01:05:52.902Z,2.50
2023-01-31T01:16:12.295Z,3.10
2023-01-31T01:26:24.058Z,2.90
2023-01-31T01:36:29.340Z,2.40
2023-01-31T01:46:46.598Z,3.10
2023-01-31T01:57:02.020Z,2.80
2023-01-31T02:07:10.113Z,3.50
2023-01-31T02:17:19.221Z,3.50
2023-01-31T02:27:54.719Z,3.40
2023-01-31T02:38:56.620Z,3.50
2023-01-31T02:49:12.660Z,3.90
2023-01-31T02:59:23.252Z,4.10
2023-01-31T03:09:39.411Z,4.90
2023-01-31T03:29:57.544Z,4.10
2023-01-31T03:40:26.293Z,4.00
2023-01-31T03:50:41.816Z,4.50
2023-01-31T04:00:49.202Z,3.50
2023-01-31T04:10:57.985Z,3.50
2023-01-31T04:21:02.151Z,3.50
2023-01-31T04:31:06.078Z,3.20
2023-01-31T04:41:10.814Z,2.90
2023-01-31T04:51:14.668Z,2.10
2023-01-31T05:01:18.693Z,1.50
2023-01-31T05:11:25.455Z,1.30
2023-01-31T05:21:29.324Z,1.20
2023-01-31T05:31:33.144Z,1.60
2023-01-31T05:41:37.212Z,2.30
2023-01-31T06:01:54.074Z,2.20
2023-01-31T06:12:11.341Z,2.70
2023-01-31T06:22:18.402Z,3.10
2023-01-31T06:32:25.896Z,2.50
2023-01-31T06:42:32.807Z,2.10
2023-01-31T06:52:40.436Z,2.50
2023-01-31T07:02:56.845Z,3.10
2023-01-31T07:13:02.450Z,4.10
2023-01-31T07:23:10.025Z,3.80
2023-01-31T07:33:14.419Z,3.40
2023-01-31T07:43:18.471Z,3.20
2023-01-31T07:53:22.431Z,3.40
2023-01-31T08:03:34.923Z,3.60
2023-01-31T08:13:42.406Z,3.90
2023-01-31T08:23:47.479Z,3.00
2023-01-31T08:33:53.594Z,3.30
2023-01-31T08:43:59.174Z,4.60
2023-01-31T08:54:03.568Z,4.70
2023-01-31T09:04:12.469Z,4.20
2023-01-31T09:14:25.383Z,4.00
2023-01-31T09:24:29.979Z,4.30
2023-01-31T09:34:34.163Z,3.90
2023-01-31T09:44:45.263Z,4.80
2023-01-31T09:54:49.787Z,4.20
2023-01-31T10:05:21.962Z,4.30
2023-01-31T10:16:00.446Z,3.90
2023-01-31T10:26:13.815Z,5.50
2023-01-31T10:36:39.464Z,4.00
2023-01-31T10:46:43.938Z,4.00
2023-01-31T10:56:57.986Z,3.40
2023-01-31T11:07:06.728Z,3.60
2023-01-31T11:17:33.925Z,4.10
2023-01-31T11:27:43.905Z,4.20
2023-01-31T11:37:59.930Z,5.00
2023-01-31T11:48:22.756Z,4.20
2023-01-31T11:58:34.885Z,3.80
2023-01-31T12:09:03.000Z,3.30
2023-01-31T12:19:42.737Z,4.20
2023-01-31T12:30:12.796Z,4.70
2023-01-31T12:40:39.607Z,4.20
2023-01-31T12:50:55.643Z,4.20
2023-01-31T13:01:11.395Z,4.50
2023-01-31T13:11:23.396Z,3.50
2023-01-31T13:21:43.943Z,3.40
2023-01-31T13:31:56.112Z,4.10
2023-01-31T13:42:15.407Z,4.80
2023-01-31T13:52:49.650Z,4.00
2023-01-31T14:03:11.684Z,4.80
2023-01-31T14:13:46.740Z,5.60
2023-01-31T14:24:04.353Z,6.10
2023-01-31T14:34:45.149Z,5.10
2023-01-31T14:45:20.713Z,6.10
2023-01-31T14:56:26.404Z,10.00
2023-01-31T15:06:53.044Z,13.90
2023-01-31T15:17:37.623Z,10.60
2023-01-31T15:27:46.567Z,8.30
2023-01-31T15:38:24.140Z,8.20
2023-01-31T15:48:36.148Z,9.20
2023-01-31T15:58:48.190Z,7.20
2023-01-31T16:09:33.931Z,10.60
2023-01-31T16:20:19.201Z,13.50
2023-01-31T16:30:44.923Z,12.90
2023-01-31T16:41:24.872Z,14.20
2023-01-31T16:52:09.654Z,14.40
2023-01-31T17:02:35.407Z,10.40
2023-01-31T17:13:11.362Z,14.20
2023-01-31T17:23:30.541Z,16.00
2023-01-31T17:33:52.899Z,18.30
2023-01-31T17:44:42.847Z,17.40
2023-01-31T17:54:56.251Z,17.20
2023-01-31T18:05:02.062Z,13.80
2023-01-31T18:15:29.581Z,13.70
2023-01-31T18:26:02.736Z,12.30
2023-01-31T18:36:22.857Z,17.70
2023-01-31T18:46:53.711Z,14.60
2023-01-31T18:57:32.390Z,16.40
2023-01-31T19:07:51.401Z,16.40
2023-01-31T19:18:21.150Z,17.70
2023-01-31T19:28:29.411Z,17.40
2023-01-31T19:38:59.268Z,15.40
2023-01-31T19:49:51.482Z,15.40
2023-01-31T20:00:22.057Z,12.50
2023-01-31T20:10:56.521Z,12.30
2023-01-31T20:21:21.042Z,19.10
2023-01-31T20:31:30.288Z,10.60
2023-01-31T20:41:40.573Z,13.90
2023-01-31T20:51:52.441Z,14.70
2023-01-31T21:02:04.156Z,13.10
2023-01-31T21:12:20.443Z,13.30
2023-01-31T21:22:25.992Z,11.00
2023-01-31T21:32:31.121Z,9.70
2023-01-31T21:42:42.836Z,6.40
2023-01-31T21:53:13.272Z,6.60
2023-01-31T22:04:20.866Z,4.70
2023-01-31T22:14:29.456Z,3.70
2023-01-31T22:24:54.534Z,4.20
2023-01-31T22:35:14.300Z,3.90
2023-01-31T22:45:48.298Z,3.70
2023-01-31T22:56:00.700Z,3.70
2023-01-31T23:06:18.379Z,3.60
2023-01-31T23:17:04.179Z,2.80
2023-01-31T23:28:23.054Z,3.40
2023-01-31T23:39:49.389Z,3.60
2023-01-31T23:50:56.920Z,3.50
